North Versailles, Pennsylvania
Current Conditions -  °F | °C
As of 10:53 PM on Saturday 25 Oct 2014 (Local Time) from KAGC Reporting Station
Clear Clear  
Wind Chill: 59°   Ceiling: Unl
Heat Index: 59°   Visibility: 9mi
Dew Point: 48°   Wind: 13mph
Humidity: 67%   Direction: 270°W
Pressure: 29.76"   Gusts: 18mph
Location:  40.38°N, 79.82°W
Report Text: KAGC 260253Z AUTO 27011G16KT 9SM CLR 15/09 A2976 RMK AO2 SLP081 T01500089 53004 TSNO
Loading
Personal Weather Stations






























Interactive Weather Map
Tropical Storm Tracking
New forecast layout! Learn more

10-Day Weather Forecast

Advertisements
Track Severe Weather on mobile